Terminal Aerodrome Forecast
Issued by NWS Duluth, MN

Home | Current Version | Previous Version | Text Only | Print | Product List | Glossary Off
Versions: 1 2 3 4 5 6 7 8 9 10 11 12 13 14 15 16 17 18 19 20 21

000
FTUS43 KDLH 282341
TAFINL
TAF
KINL 282341Z 2900/2924 VRB03KT 1SM -DZ VCSH OVC003
      TEMPO 2900/2902 1/2SM FG
     FM291300 30007KT 4SM BR OVC007
     FM291600 29010KT P6SM BKN015
     FM292000 29010G18KT P6SM BKN035=

USA.gov is the U.S. government's official web portal to all federal, state and local government web resources and services.